| Date | Time | Temp. (oF) | Dew Point (oF) | Rel. Hum. (%) | Press. (in.) | Wind Dir. | Wind Speed (mph) | Hourly Rainfall (in.) |
|
|---|---|---|---|---|---|---|---|---|---|
| 1 | 03/19 | 00:00 | 50 | 50 | 100 | 30.21 | SE | 0 | 0.00 |
| 2 | 03/18 | 23:00 | 52 | 51 | 100 | 30.21 | SSE | 0 | 0.00 |
| 3 | 03/18 | 22:00 | 53 | 52 | 99 | 30.21 | S | 1 | 0.00 |
| 4 | 03/18 | 21:00 | 54 | 52 | 95 | 30.20 | S | 0 | 0.00 |
| 5 | 03/18 | 20:00 | 57 | 53 | 89 | 30.19 | SE | 1 | 0.00 |
| 6 | 03/18 | 19:00 | 60 | 53 | 80 | 30.18 | S | 4 | 0.00 |
| 7 | 03/18 | 18:00 | 63 | 54 | 74 | 30.18 | S | 5 | 0.00 |
| 8 | 03/18 | 17:00 | 66 | 56 | 72 | 30.19 | S | 6 | 0.00 |
| 9 | 03/18 | 16:00 | 66 | 55 | 70 | 30.21 | S | 7 | 0.00 |
| 10 | 03/18 | 15:00 | 64 | 55 | 73 | 30.25 | SE | 4 | 0.00 |
| 11 | 03/18 | 14:00 | 60 | 54 | 82 | 30.29 | ESE | 2 | 0.00 |
| 12 | 03/18 | 13:00 | 55 | 52 | 91 | 30.32 | SSW | 4 | 0.00 |
| 13 | 03/18 | 12:00 | 52 | 51 | 100 | 30.35 | S | 4 | 0.00 |
| 14 | 03/18 | 11:00 | 49 | 49 | 100 | 30.37 | SSE | 5 | 0.00 |
| 15 | 03/18 | 10:00 | 47 | 46 | 100 | 30.38 | SSW | 3 | 0.00 |
| 16 | 03/18 | 09:00 | 47 | 46 | 100 | 30.37 | S | 2 | 0.00 |
| 17 | 03/18 | 08:00 | 46 | 45 | 100 | 30.37 | S | 0 | 0.00 |
| 18 | 03/18 | 07:00 | 46 | 45 | 100 | 30.36 | ENE | 0 | 0.00 |
| 19 | 03/18 | 06:00 | 46 | 45 | 100 | 30.35 | SE | 4 | 0.00 |
| 20 | 03/18 | 05:00 | 46 | 45 | 100 | 30.34 | S | 1 | 0.00 |
| 21 | 03/18 | 04:00 | 46 | 45 | 100 | 30.33 | SSE | 2 | 0.00 |
| 22 | 03/18 | 03:00 | 47 | 46 | 100 | 30.33 | ESE | 2 | 0.00 |
| 23 | 03/18 | 02:00 | 48 | 48 | 100 | 30.33 | SE | 3 | 0.00 |
| 24 | 03/18 | 01:00 | 49 | 49 | 100 | 30.32 | SSE | 3 | 0.00 |